sensor_id;sensor_type;location;lat;lon;timestamp;temperature;humidity
25468;DHT22;13384;24.794;110.498;2023-03-11T00:02:13;17.90;99.90
25468;DHT22;13384;24.794;110.498;2023-03-11T00:04:44;17.90;99.90
25468;DHT22;13384;24.794;110.498;2023-03-11T00:07:15;18.00;99.90
25468;DHT22;13384;24.794;110.498;2023-03-11T00:09:47;18.00;99.90
25468;DHT22;13384;24.794;110.498;2023-03-11T00:12:18;18.10;99.90
25468;DHT22;13384;24.794;110.498;2023-03-11T00:14:49;18.10;99.90
25468;DHT22;13384;24.794;110.498;2023-03-11T00:17:20;18.10;99.90
25468;DHT22;13384;24.794;110.498;2023-03-11T00:19:51;18.10;99.90
25468;DHT22;13384;24.794;110.498;2023-03-11T00:22:21;18.20;99.90
25468;DHT22;13384;24.794;110.498;2023-03-11T00:24:53;18.20;99.90
25468;DHT22;13384;24.794;110.498;2023-03-11T00:27:24;18.30;99.90
25468;DHT22;13384;24.794;110.498;2023-03-11T00:29:58;18.30;99.90
25468;DHT22;13384;24.794;110.498;2023-03-11T00:32:29;18.40;99.90
25468;DHT22;13384;24.794;110.498;2023-03-11T00:35:02;18.50;99.90
25468;DHT22;13384;24.794;110.498;2023-03-11T00:37:33;18.50;99.90
25468;DHT22;13384;24.794;110.498;2023-03-11T00:40:04;18.60;99.90
25468;DHT22;13384;24.794;110.498;2023-03-11T00:42:40;18.60;99.90
25468;DHT22;13384;24.794;110.498;2023-03-11T00:45:12;18.70;99.90
25468;DHT22;13384;24.794;110.498;2023-03-11T00:47:43;18.70;99.90
25468;DHT22;13384;24.794;110.498;2023-03-11T00:50:17;18.70;99.90
25468;DHT22;13384;24.794;110.498;2023-03-11T00:52:54;18.80;99.90
25468;DHT22;13384;24.794;110.498;2023-03-11T00:55:31;18.90;99.90
25468;DHT22;13384;24.794;110.498;2023-03-11T00:58:06;18.90;99.90
25468;DHT22;13384;24.794;110.498;2023-03-11T01:00:54;19.00;99.90
25468;DHT22;13384;24.794;110.498;2023-03-11T01:03:26;19.10;99.90
25468;DHT22;13384;24.794;110.498;2023-03-11T01:05:57;19.20;99.90
25468;DHT22;13384;24.794;110.498;2023-03-11T01:08:29;19.30;99.90
25468;DHT22;13384;24.794;110.498;2023-03-11T01:11:05;19.20;99.90
25468;DHT22;13384;24.794;110.498;2023-03-11T01:13:37;19.30;99.90
25468;DHT22;13384;24.794;110.498;2023-03-11T01:16:09;19.40;99.90
25468;DHT22;13384;24.794;110.498;2023-03-11T01:18:40;19.40;99.90
25468;DHT22;13384;24.794;110.498;2023-03-11T01:21:13;19.40;99.90
25468;DHT22;13384;24.794;110.498;2023-03-11T01:23:44;19.50;99.90
25468;DHT22;13384;24.794;110.498;2023-03-11T01:26:15;19.50;99.90
25468;DHT22;13384;24.794;110.498;2023-03-11T01:28:47;19.60;99.90
25468;DHT22;13384;24.794;110.498;2023-03-11T01:31:18;19.60;99.90
25468;DHT22;13384;24.794;110.498;2023-03-11T01:33:50;19.60;99.90
25468;DHT22;13384;24.794;110.498;2023-03-11T01:36:21;19.70;99.90
25468;DHT22;13384;24.794;110.498;2023-03-11T01:38:53;19.80;99.90
25468;DHT22;13384;24.794;110.498;2023-03-11T01:41:24;19.80;99.90
25468;DHT22;13384;24.794;110.498;2023-03-11T01:44:09;19.90;99.90
25468;DHT22;13384;24.794;110.498;2023-03-11T01:49:27;20.00;99.90
25468;DHT22;13384;24.794;110.498;2023-03-11T01:52:04;20.10;99.90
25468;DHT22;13384;24.794;110.498;2023-03-11T01:54:47;20.20;99.90
25468;DHT22;13384;24.794;110.498;2023-03-11T01:57:20;20.20;99.90
25468;DHT22;13384;24.794;110.498;2023-03-11T01:59:55;20.30;99.90
25468;DHT22;13384;24.794;110.498;2023-03-11T02:02:50;20.40;99.90
25468;DHT22;13384;24.794;110.498;2023-03-11T02:05:23;20.50;99.90
25468;DHT22;13384;24.794;110.498;2023-03-11T02:07:55;20.60;99.90
25468;DHT22;13384;24.794;110.498;2023-03-11T02:10:31;20.70;99.90
25468;DHT22;13384;24.794;110.498;2023-03-11T02:13:06;20.80;99.90
25468;DHT22;13384;24.794;110.498;2023-03-11T02:15:39;20.90;99.90
25468;DHT22;13384;24.794;110.498;2023-03-11T02:18:14;21.00;99.90
25468;DHT22;13384;24.794;110.498;2023-03-11T02:23:52;21.30;99.90
25468;DHT22;13384;24.794;110.498;2023-03-11T02:26:55;21.40;99.90
25468;DHT22;13384;24.794;110.498;2023-03-11T02:29:28;21.50;99.90
25468;DHT22;13384;24.794;110.498;2023-03-11T02:32:12;21.60;99.90
25468;DHT22;13384;24.794;110.498;2023-03-11T02:34:47;21.70;99.90
25468;DHT22;13384;24.794;110.498;2023-03-11T02:37:18;21.70;99.90
25468;DHT22;13384;24.794;110.498;2023-03-11T02:43:16;21.80;99.90
25468;DHT22;13384;24.794;110.498;2023-03-11T02:45:49;21.80;99.90
25468;DHT22;13384;24.794;110.498;2023-03-11T02:48:21;21.90;99.90
25468;DHT22;13384;24.794;110.498;2023-03-11T02:50:53;21.90;99.90
25468;DHT22;13384;24.794;110.498;2023-03-11T02:53:28;22.00;99.90
25468;DHT22;13384;24.794;110.498;2023-03-11T02:56:00;22.10;99.90
25468;DHT22;13384;24.794;110.498;2023-03-11T02:58:33;22.10;99.90
25468;DHT22;13384;24.794;110.498;2023-03-11T03:01:05;22.20;99.90
25468;DHT22;13384;24.794;110.498;2023-03-11T03:03:36;22.30;99.90
25468;DHT22;13384;24.794;110.498;2023-03-11T03:06:07;22.40;99.90
25468;DHT22;13384;24.794;110.498;2023-03-11T03:08:53;22.50;99.90
25468;DHT22;13384;24.794;110.498;2023-03-11T03:11:25;22.50;99.90
25468;DHT22;13384;24.794;110.498;2023-03-11T03:14:24;22.50;99.90
25468;DHT22;13384;24.794;110.498;2023-03-11T03:16:57;22.50;99.90
25468;DHT22;13384;24.794;110.498;2023-03-11T03:19:28;22.50;99.90
25468;DHT22;13384;24.794;110.498;2023-03-11T03:22:00;22.50;99.90
25468;DHT22;13384;24.794;110.498;2023-03-11T03:24:33;22.50;99.90
25468;DHT22;13384;24.794;110.498;2023-03-11T03:27:04;22.60;99.90
25468;DHT22;13384;24.794;110.498;2023-03-11T03:29:36;22.60;99.90
25468;DHT22;13384;24.794;110.498;2023-03-11T03:32:08;22.70;99.90
25468;DHT22;13384;24.794;110.498;2023-03-11T03:34:39;22.60;99.90
25468;DHT22;13384;24.794;110.498;2023-03-11T03:37:10;22.50;99.90
25468;DHT22;13384;24.794;110.498;2023-03-11T03:39:54;22.50;99.90
25468;DHT22;13384;24.794;110.498;2023-03-11T03:42:29;22.50;99.90
25468;DHT22;13384;24.794;110.498;2023-03-11T03:45:08;22.60;99.90
25468;DHT22;13384;24.794;110.498;2023-03-11T03:47:39;22.60;99.90
25468;DHT22;13384;24.794;110.498;2023-03-11T03:50:12;22.70;99.90
25468;DHT22;13384;24.794;110.498;2023-03-11T03:52:46;22.80;99.90
25468;DHT22;13384;24.794;110.498;2023-03-11T03:55:18;22.80;99.90
25468;DHT22;13384;24.794;110.498;2023-03-11T03:57:50;22.80;99.90
25468;DHT22;13384;24.794;110.498;2023-03-11T04:00:25;23.00;99.90
25468;DHT22;13384;24.794;110.498;2023-03-11T04:03:01;23.00;99.90
25468;DHT22;13384;24.794;110.498;2023-03-11T04:05:44;23.00;99.90
25468;DHT22;13384;24.794;110.498;2023-03-11T04:08:16;23.00;99.90
25468;DHT22;13384;24.794;110.498;2023-03-11T04:10:57;22.80;99.90
25468;DHT22;13384;24.794;110.498;2023-03-11T04:13:31;22.80;99.90
25468;DHT22;13384;24.794;110.498;2023-03-11T04:16:04;22.90;99.90
25468;DHT22;13384;24.794;110.498;2023-03-11T04:18:35;22.90;99.90
25468;DHT22;13384;24.794;110.498;2023-03-11T04:21:08;22.80;99.90
25468;DHT22;13384;24.794;110.498;2023-03-11T04:23:43;22.80;99.90
25468;DHT22;13384;24.794;110.498;2023-03-11T04:26:17;22.80;99.90
25468;DHT22;13384;24.794;110.498;2023-03-11T04:28:49;22.90;99.90
25468;DHT22;13384;24.794;110.498;2023-03-11T04:31:20;22.80;99.90
25468;DHT22;13384;24.794;110.498;2023-03-11T04:33:53;22.90;99.90
25468;DHT22;13384;24.794;110.498;2023-03-11T04:36:25;22.90;99.90
25468;DHT22;13384;24.794;110.498;2023-03-11T04:39:00;23.10;99.90
25468;DHT22;13384;24.794;110.498;2023-03-11T04:41:36;23.40;99.90
25468;DHT22;13384;24.794;110.498;2023-03-11T04:44:15;23.50;99.50
25468;DHT22;13384;24.794;110.498;2023-03-11T04:46:46;23.50;99.90
25468;DHT22;13384;24.794;110.498;2023-03-11T04:49:18;23.50;99.90
25468;DHT22;13384;24.794;110.498;2023-03-11T04:51:52;23.50;99.70
25468;DHT22;13384;24.794;110.498;2023-03-11T04:54:24;23.60;99.50
25468;DHT22;13384;24.794;110.498;2023-03-11T04:57:15;23.60;99.70
25468;DHT22;13384;24.794;110.498;2023-03-11T04:59:48;23.60;99.40
25468;DHT22;13384;24.794;110.498;2023-03-11T05:02:40;23.60;99.00
25468;DHT22;13384;24.794;110.498;2023-03-11T05:05:14;23.40;99.90
25468;DHT22;13384;24.794;110.498;2023-03-11T05:08:06;23.40;99.10
25468;DHT22;13384;24.794;110.498;2023-03-11T05:10:41;23.50;99.30
25468;DHT22;13384;24.794;110.498;2023-03-11T05:13:34;23.40;99.20
25468;DHT22;13384;24.794;110.498;2023-03-11T05:16:06;23.60;99.80
25468;DHT22;13384;24.794;110.498;2023-03-11T05:18:38;24.00;98.40
25468;DHT22;13384;24.794;110.498;2023-03-11T05:21:14;24.20;99.60
25468;DHT22;13384;24.794;110.498;2023-03-11T05:23:46;24.10;98.60
25468;DHT22;13384;24.794;110.498;2023-03-11T05:26:17;23.90;98.30
25468;DHT22;13384;24.794;110.498;2023-03-11T05:28:49;23.80;98.00
25468;DHT22;13384;24.794;110.498;2023-03-11T05:31:23;23.60;98.60
25468;DHT22;13384;24.794;110.498;2023-03-11T05:33:58;23.70;99.20
25468;DHT22;13384;24.794;110.498;2023-03-11T05:36:30;23.80;98.40
25468;DHT22;13384;24.794;110.498;2023-03-11T05:39:02;23.80;99.20
25468;DHT22;13384;24.794;110.498;2023-03-11T05:41:35;23.80;98.70
25468;DHT22;13384;24.794;110.498;2023-03-11T05:44:08;23.90;97.90
25468;DHT22;13384;24.794;110.498;2023-03-11T05:46:42;23.80;97.60
25468;DHT22;13384;24.794;110.498;2023-03-11T05:49:13;23.80;97.50
25468;DHT22;13384;24.794;110.498;2023-03-11T05:51:50;23.60;97.70
25468;DHT22;13384;24.794;110.498;2023-03-11T05:54:28;23.50;97.70
25468;DHT22;13384;24.794;110.498;2023-03-11T05:57:00;23.30;98.40
25468;DHT22;13384;24.794;110.498;2023-03-11T05:59:32;23.20;98.80
25468;DHT22;13384;24.794;110.498;2023-03-11T06:02:08;23.30;98.30
25468;DHT22;13384;24.794;110.498;2023-03-11T06:04:40;23.20;98.50
25468;DHT22;13384;24.794;110.498;2023-03-11T06:07:34;23.10;98.80
25468;DHT22;13384;24.794;110.498;2023-03-11T06:10:09;23.00;99.10
25468;DHT22;13384;24.794;110.498;2023-03-11T06:12:43;23.00;98.90
25468;DHT22;13384;24.794;110.498;2023-03-11T06:15:26;23.10;98.40
25468;DHT22;13384;24.794;110.498;2023-03-11T06:17:59;23.10;98.90
25468;DHT22;13384;24.794;110.498;2023-03-11T06:20:32;23.00;99.10
25468;DHT22;13384;24.794;110.498;2023-03-11T06:23:04;23.00;98.80
25468;DHT22;13384;24.794;110.498;2023-03-11T06:25:36;23.00;98.80
25468;DHT22;13384;24.794;110.498;2023-03-11T06:28:07;22.90;99.00
25468;DHT22;13384;24.794;110.498;2023-03-11T06:30:39;22.80;99.60
25468;DHT22;13384;24.794;110.498;2023-03-11T06:33:15;22.80;99.60
25468;DHT22;13384;24.794;110.498;2023-03-11T06:35:59;22.70;99.60
25468;DHT22;13384;24.794;110.498;2023-03-11T06:38:32;22.80;99.80
25468;DHT22;13384;24.794;110.498;2023-03-11T06:41:06;22.90;99.70
25468;DHT22;13384;24.794;110.498;2023-03-11T06:43:38;22.90;99.90
25468;DHT22;13384;24.794;110.498;2023-03-11T06:46:20;22.80;99.90
25468;DHT22;13384;24.794;110.498;2023-03-11T06:49:15;22.60;99.90
25468;DHT22;13384;24.794;110.498;2023-03-11T06:51:48;22.50;99.90
25468;DHT22;13384;24.794;110.498;2023-03-11T06:54:20;22.40;99.90
25468;DHT22;13384;24.794;110.498;2023-03-11T06:56:53;22.40;99.90
25468;DHT22;13384;24.794;110.498;2023-03-11T06:59:24;22.50;99.90
25468;DHT22;13384;24.794;110.498;2023-03-11T07:01:58;22.70;99.90
25468;DHT22;13384;24.794;110.498;2023-03-11T07:04:31;22.90;99.80
25468;DHT22;13384;24.794;110.498;2023-03-11T07:07:02;23.00;99.90
25468;DHT22;13384;24.794;110.498;2023-03-11T07:09:34;23.10;99.40
25468;DHT22;13384;24.794;110.498;2023-03-11T07:12:07;23.10;99.00
25468;DHT22;13384;24.794;110.498;2023-03-11T07:14:39;23.20;98.90
25468;DHT22;13384;24.794;110.498;2023-03-11T07:17:12;23.30;99.00
25468;DHT22;13384;24.794;110.498;2023-03-11T07:19:52;23.30;98.30
25468;DHT22;13384;24.794;110.498;2023-03-11T07:22:23;23.50;97.90
25468;DHT22;13384;24.794;110.498;2023-03-11T07:25:01;23.60;97.30
25468;DHT22;13384;24.794;110.498;2023-03-11T07:27:33;23.80;97.40
25468;DHT22;13384;24.794;110.498;2023-03-11T07:30:05;23.90;96.90
25468;DHT22;13384;24.794;110.498;2023-03-11T07:32:36;24.00;96.60
25468;DHT22;13384;24.794;110.498;2023-03-11T07:35:08;24.00;96.60
25468;DHT22;13384;24.794;110.498;2023-03-11T07:37:41;23.70;96.70
25468;DHT22;13384;24.794;110.498;2023-03-11T07:40:13;23.40;97.70
25468;DHT22;13384;24.794;110.498;2023-03-11T07:42:44;23.70;96.80
25468;DHT22;13384;24.794;110.498;2023-03-11T07:45:16;23.90;96.70
25468;DHT22;13384;24.794;110.498;2023-03-11T07:47:47;24.00;96.10
25468;DHT22;13384;24.794;110.498;2023-03-11T07:50:19;24.20;95.80
25468;DHT22;13384;24.794;110.498;2023-03-11T07:52:53;24.10;96.00
25468;DHT22;13384;24.794;110.498;2023-03-11T07:55:44;24.00;95.50
25468;DHT22;13384;24.794;110.498;2023-03-11T07:58:34;24.00;95.90
25468;DHT22;13384;24.794;110.498;2023-03-11T08:01:20;23.90;95.20
25468;DHT22;13384;24.794;110.498;2023-03-11T08:04:14;23.90;95.20
25468;DHT22;13384;24.794;110.498;2023-03-11T08:06:47;23.80;95.50
25468;DHT22;13384;24.794;110.498;2023-03-11T08:09:19;23.80;95.20
25468;DHT22;13384;24.794;110.498;2023-03-11T08:11:50;23.80;95.40
25468;DHT22;13384;24.794;110.498;2023-03-11T08:14:22;23.70;95.70
25468;DHT22;13384;24.794;110.498;2023-03-11T08:16:55;23.60;95.90
25468;DHT22;13384;24.794;110.498;2023-03-11T08:19:27;23.60;96.10
25468;DHT22;13384;24.794;110.498;2023-03-11T08:22:01;23.50;96.50
25468;DHT22;13384;24.794;110.498;2023-03-11T08:24:33;23.60;96.50
25468;DHT22;13384;24.794;110.498;2023-03-11T08:27:05;23.60;96.50
25468;DHT22;13384;24.794;110.498;2023-03-11T08:29:44;23.60;96.80
25468;DHT22;13384;24.794;110.498;2023-03-11T08:32:18;23.50;97.10
25468;DHT22;13384;24.794;110.498;2023-03-11T08:34:50;23.50;96.80
25468;DHT22;13384;24.794;110.498;2023-03-11T08:37:22;23.50;96.70
25468;DHT22;13384;24.794;110.498;2023-03-11T08:40:14;23.50;96.90
25468;DHT22;13384;24.794;110.498;2023-03-11T08:42:45;23.40;97.10
25468;DHT22;13384;24.794;110.498;2023-03-11T08:45:26;23.30;97.20
25468;DHT22;13384;24.794;110.498;2023-03-11T08:47:59;23.20;98.00
25468;DHT22;13384;24.794;110.498;2023-03-11T08:50:32;23.20;97.40
25468;DHT22;13384;24.794;110.498;2023-03-11T08:53:21;23.30;97.70
25468;DHT22;13384;24.794;110.498;2023-03-11T08:56:06;23.30;97.60
25468;DHT22;13384;24.794;110.498;2023-03-11T08:58:37;23.30;97.20
25468;DHT22;13384;24.794;110.498;2023-03-11T09:01:13;23.30;97.30
25468;DHT22;13384;24.794;110.498;2023-03-11T09:03:44;23.30;97.40
25468;DHT22;13384;24.794;110.498;2023-03-11T09:06:16;23.30;97.00
25468;DHT22;13384;24.794;110.498;2023-03-11T09:08:59;23.30;97.10
25468;DHT22;13384;24.794;110.498;2023-03-11T09:11:30;23.40;96.90
25468;DHT22;13384;24.794;110.498;2023-03-11T09:14:03;23.30;97.00
25468;DHT22;13384;24.794;110.498;2023-03-11T09:16:35;23.30;97.30
25468;DHT22;13384;24.794;110.498;2023-03-11T09:19:06;23.30;97.20
25468;DHT22;13384;24.794;110.498;2023-03-11T09:21:37;23.40;96.90
25468;DHT22;13384;24.794;110.498;2023-03-11T09:24:12;23.40;96.90
25468;DHT22;13384;24.794;110.498;2023-03-11T09:26:43;23.50;97.20
25468;DHT22;13384;24.794;110.498;2023-03-11T09:29:15;23.40;97.10
25468;DHT22;13384;24.794;110.498;2023-03-11T09:31:51;23.30;97.10
25468;DHT22;13384;24.794;110.498;2023-03-11T09:34:24;23.30;97.20
25468;DHT22;13384;24.794;110.498;2023-03-11T09:36:55;23.20;97.40
25468;DHT22;13384;24.794;110.498;2023-03-11T09:39:26;23.10;97.80
25468;DHT22;13384;24.794;110.498;2023-03-11T09:42:26;23.00;97.70
25468;DHT22;13384;24.794;110.498;2023-03-11T09:45:20;23.00;97.90
25468;DHT22;13384;24.794;110.498;2023-03-11T09:51:02;22.80;99.50
25468;DHT22;13384;24.794;110.498;2023-03-11T09:53:45;22.70;99.80
25468;DHT22;13384;24.794;110.498;2023-03-11T09:56:19;22.70;99.70
25468;DHT22;13384;24.794;110.498;2023-03-11T09:58:53;22.50;99.90
25468;DHT22;13384;24.794;110.498;2023-03-11T10:01:32;22.50;99.90
25468;DHT22;13384;24.794;110.498;2023-03-11T10:04:41;22.40;99.90
25468;DHT22;13384;24.794;110.498;2023-03-11T10:07:19;22.20;99.90
25468;DHT22;13384;24.794;110.498;2023-03-11T10:09:54;22.20;99.90
25468;DHT22;13384;24.794;110.498;2023-03-11T10:18:28;22.00;99.90
25468;DHT22;13384;24.794;110.498;2023-03-11T10:27:39;21.80;99.90
25468;DHT22;13384;24.794;110.498;2023-03-11T10:33:23;21.60;99.90
25468;DHT22;13384;24.794;110.498;2023-03-11T10:36:21;21.60;99.90
25468;DHT22;13384;24.794;110.498;2023-03-11T10:38:59;21.50;99.90
25468;DHT22;13384;24.794;110.498;2023-03-11T10:41:55;21.50;99.90
25468;DHT22;13384;24.794;110.498;2023-03-11T10:44:41;21.40;99.90
25468;DHT22;13384;24.794;110.498;2023-03-11T10:47:23;21.40;99.90
25468;DHT22;13384;24.794;110.498;2023-03-11T10:50:17;21.30;99.90
25468;DHT22;13384;24.794;110.498;2023-03-11T10:53:15;21.20;99.90
25468;DHT22;13384;24.794;110.498;2023-03-11T10:56:35;21.20;99.90
25468;DHT22;13384;24.794;110.498;2023-03-11T10:59:27;21.20;99.90
25468;DHT22;13384;24.794;110.498;2023-03-11T11:02:26;21.10;99.90
25468;DHT22;13384;24.794;110.498;2023-03-11T11:05:24;21.10;99.90
25468;DHT22;13384;24.794;110.498;2023-03-11T11:08:14;21.00;99.90
25468;DHT22;13384;24.794;110.498;2023-03-11T11:10:56;21.00;99.90
25468;DHT22;13384;24.794;110.498;2023-03-11T11:13:29;20.90;99.90
25468;DHT22;13384;24.794;110.498;2023-03-11T11:19:01;20.90;99.90
25468;DHT22;13384;24.794;110.498;2023-03-11T11:21:43;20.80;99.90
25468;DHT22;13384;24.794;110.498;2023-03-11T11:24:27;20.80;99.90
25468;DHT22;13384;24.794;110.498;2023-03-11T11:27:20;20.70;99.90
25468;DHT22;13384;24.794;110.498;2023-03-11T11:30:15;20.60;99.90
25468;DHT22;13384;24.794;110.498;2023-03-11T11:32:47;20.60;99.90
25468;DHT22;13384;24.794;110.498;2023-03-11T11:35:23;20.60;99.90
25468;DHT22;13384;24.794;110.498;2023-03-11T11:38:00;20.60;99.90
25468;DHT22;13384;24.794;110.498;2023-03-11T11:40:47;20.50;99.90
25468;DHT22;13384;24.794;110.498;2023-03-11T11:43:47;20.60;99.90
25468;DHT22;13384;24.794;110.498;2023-03-11T11:46:30;20.50;99.90
25468;DHT22;13384;24.794;110.498;2023-03-11T11:49:23;20.50;99.90
25468;DHT22;13384;24.794;110.498;2023-03-11T11:52:16;20.40;99.90
25468;DHT22;13384;24.794;110.498;2023-03-11T11:55:30;20.30;99.90
25468;DHT22;13384;24.794;110.498;2023-03-11T11:58:08;20.20;99.90
25468;DHT22;13384;24.794;110.498;2023-03-11T12:01:02;20.30;99.90
25468;DHT22;13384;24.794;110.498;2023-03-11T12:24:32;20.20;99.90
25468;DHT22;13384;24.794;110.498;2023-03-11T12:27:18;20.20;99.90
25468;DHT22;13384;24.794;110.498;2023-03-11T12:29:56;20.20;99.90
25468;DHT22;13384;24.794;110.498;2023-03-11T12:32:48;20.30;99.90
25468;DHT22;13384;24.794;110.498;2023-03-11T12:35:31;20.20;99.90
25468;DHT22;13384;24.794;110.498;2023-03-11T12:38:14;20.20;99.90
25468;DHT22;13384;24.794;110.498;2023-03-11T12:41:12;20.20;99.90
25468;DHT22;13384;24.794;110.498;2023-03-11T12:44:04;20.10;99.90
25468;DHT22;13384;24.794;110.498;2023-03-11T12:47:10;20.10;99.90
25468;DHT22;13384;24.794;110.498;2023-03-11T12:49:52;20.10;99.90
25468;DHT22;13384;24.794;110.498;2023-03-11T12:52:28;20.00;99.90
25468;DHT22;13384;24.794;110.498;2023-03-11T13:01:14;20.00;99.90
25468;DHT22;13384;24.794;110.498;2023-03-11T13:09:30;19.90;99.90
25468;DHT22;13384;24.794;110.498;2023-03-11T13:12:21;19.90;99.90
25468;DHT22;13384;24.794;110.498;2023-03-11T13:20:47;19.90;99.90
25468;DHT22;13384;24.794;110.498;2023-03-11T13:23:22;19.80;99.90
25468;DHT22;13384;24.794;110.498;2023-03-11T13:29:04;19.70;99.90
25468;DHT22;13384;24.794;110.498;2023-03-11T13:34:58;19.70;99.90
25468;DHT22;13384;24.794;110.498;2023-03-11T13:40:48;19.60;99.90
25468;DHT22;13384;24.794;110.498;2023-03-11T13:43:24;19.60;99.90
25468;DHT22;13384;24.794;110.498;2023-03-11T13:46:00;19.60;99.90
25468;DHT22;13384;24.794;110.498;2023-03-11T13:48:43;19.60;99.90
25468;DHT22;13384;24.794;110.498;2023-03-11T13:51:23;19.60;99.90
25468;DHT22;13384;24.794;110.498;2023-03-11T13:54:07;19.60;99.90
25468;DHT22;13384;24.794;110.498;2023-03-11T13:56:57;19.50;99.90
25468;DHT22;13384;24.794;110.498;2023-03-11T13:59:33;19.50;99.90
25468;DHT22;13384;24.794;110.498;2023-03-11T14:02:16;19.60;99.90
25468;DHT22;13384;24.794;110.498;2023-03-11T14:04:55;19.50;99.90
25468;DHT22;13384;24.794;110.498;2023-03-11T14:07:47;19.50;99.90
25468;DHT22;13384;24.794;110.498;2023-03-11T14:13:39;19.50;99.90
25468;DHT22;13384;24.794;110.498;2023-03-11T14:16:40;19.50;99.90
25468;DHT22;13384;24.794;110.498;2023-03-11T14:19:20;19.50;99.90
25468;DHT22;13384;24.794;110.498;2023-03-11T14:21:51;19.60;99.90
25468;DHT22;13384;24.794;110.498;2023-03-11T14:24:29;19.60;99.90
25468;DHT22;13384;24.794;110.498;2023-03-11T14:27:08;19.60;99.90
25468;DHT22;13384;24.794;110.498;2023-03-11T14:29:42;19.60;99.90
25468;DHT22;13384;24.794;110.498;2023-03-11T14:32:32;19.60;99.90
25468;DHT22;13384;24.794;110.498;2023-03-11T14:35:20;19.60;99.90
25468;DHT22;13384;24.794;110.498;2023-03-11T14:37:52;19.60;99.90
25468;DHT22;13384;24.794;110.498;2023-03-11T14:40:50;19.60;99.90
25468;DHT22;13384;24.794;110.498;2023-03-11T14:43:24;19.60;99.90
25468;DHT22;13384;24.794;110.498;2023-03-11T14:45:57;19.60;99.90
25468;DHT22;13384;24.794;110.498;2023-03-11T14:48:36;19.60;99.90
25468;DHT22;13384;24.794;110.498;2023-03-11T14:51:31;19.60;99.90
25468;DHT22;13384;24.794;110.498;2023-03-11T14:54:15;19.60;99.90
25468;DHT22;13384;24.794;110.498;2023-03-11T14:56:53;19.60;99.90
25468;DHT22;13384;24.794;110.498;2023-03-11T14:59:29;19.60;99.90
25468;DHT22;13384;24.794;110.498;2023-03-11T15:02:37;19.60;99.90
25468;DHT22;13384;24.794;110.498;2023-03-11T15:05:21;19.60;99.90
25468;DHT22;13384;24.794;110.498;2023-03-11T15:07:59;19.60;99.90
25468;DHT22;13384;24.794;110.498;2023-03-11T15:10:34;19.60;99.90
25468;DHT22;13384;24.794;110.498;2023-03-11T15:13:23;19.50;99.90
25468;DHT22;13384;24.794;110.498;2023-03-11T15:16:00;19.50;99.90
25468;DHT22;13384;24.794;110.498;2023-03-11T15:18:37;19.40;99.90
25468;DHT22;13384;24.794;110.498;2023-03-11T15:21:18;19.40;99.90
25468;DHT22;13384;24.794;110.498;2023-03-11T15:23:58;19.40;99.90
25468;DHT22;13384;24.794;110.498;2023-03-11T15:26:32;19.50;99.90
25468;DHT22;13384;24.794;110.498;2023-03-11T15:29:15;19.50;99.90
25468;DHT22;13384;24.794;110.498;2023-03-11T15:31:47;19.40;99.90
25468;DHT22;13384;24.794;110.498;2023-03-11T15:34:36;19.40;99.90
25468;DHT22;13384;24.794;110.498;2023-03-11T15:37:19;19.40;99.90
25468;DHT22;13384;24.794;110.498;2023-03-11T15:39:51;19.30;99.90
25468;DHT22;13384;24.794;110.498;2023-03-11T15:42:27;19.30;99.90
25468;DHT22;13384;24.794;110.498;2023-03-11T15:47:34;19.30;99.90
25468;DHT22;13384;24.794;110.498;2023-03-11T15:50:14;19.30;99.90
25468;DHT22;13384;24.794;110.498;2023-03-11T15:53:03;19.30;99.90
25468;DHT22;13384;24.794;110.498;2023-03-11T15:55:35;19.30;99.90
25468;DHT22;13384;24.794;110.498;2023-03-11T15:58:11;19.30;99.90
25468;DHT22;13384;24.794;110.498;2023-03-11T16:00:49;19.30;99.90
25468;DHT22;13384;24.794;110.498;2023-03-11T16:03:22;19.30;99.90
25468;DHT22;13384;24.794;110.498;2023-03-11T16:06:04;19.40;99.90
25468;DHT22;13384;24.794;110.498;2023-03-11T16:08:36;19.30;99.90
25468;DHT22;13384;24.794;110.498;2023-03-11T16:11:12;19.30;99.90
25468;DHT22;13384;24.794;110.498;2023-03-11T16:14:08;19.30;99.90
25468;DHT22;13384;24.794;110.498;2023-03-11T16:16:40;19.30;99.90
25468;DHT22;13384;24.794;110.498;2023-03-11T16:19:12;19.30;99.90
25468;DHT22;13384;24.794;110.498;2023-03-11T16:21:47;19.30;99.90
25468;DHT22;13384;24.794;110.498;2023-03-11T16:24:22;19.40;99.90
25468;DHT22;13384;24.794;110.498;2023-03-11T16:26:55;19.30;99.90
25468;DHT22;13384;24.794;110.498;2023-03-11T16:29:27;19.30;99.90
25468;DHT22;13384;24.794;110.498;2023-03-11T16:32:01;19.30;99.90
25468;DHT22;13384;24.794;110.498;2023-03-11T16:34:34;19.30;99.90
25468;DHT22;13384;24.794;110.498;2023-03-11T16:37:06;19.20;99.90
25468;DHT22;13384;24.794;110.498;2023-03-11T16:39:40;19.30;99.90
25468;DHT22;13384;24.794;110.498;2023-03-11T16:42:12;19.20;99.90
25468;DHT22;13384;24.794;110.498;2023-03-11T16:44:43;19.20;99.90
25468;DHT22;13384;24.794;110.498;2023-03-11T16:47:16;19.20;99.90
25468;DHT22;13384;24.794;110.498;2023-03-11T16:49:47;19.20;99.90
25468;DHT22;13384;24.794;110.498;2023-03-11T16:52:24;19.30;99.90
25468;DHT22;13384;24.794;110.498;2023-03-11T16:54:58;19.30;99.90
25468;DHT22;13384;24.794;110.498;2023-03-11T16:57:29;19.20;99.90
25468;DHT22;13384;24.794;110.498;2023-03-11T17:00:01;19.20;99.90
25468;DHT22;13384;24.794;110.498;2023-03-11T17:02:38;19.20;99.90
25468;DHT22;13384;24.794;110.498;2023-03-11T17:05:09;19.20;99.90
25468;DHT22;13384;24.794;110.498;2023-03-11T17:07:41;19.20;99.90
25468;DHT22;13384;24.794;110.498;2023-03-11T17:10:12;19.20;99.90
25468;DHT22;13384;24.794;110.498;2023-03-11T17:12:45;19.20;99.90
25468;DHT22;13384;24.794;110.498;2023-03-11T17:15:17;19.20;99.90
25468;DHT22;13384;24.794;110.498;2023-03-11T17:17:49;19.20;99.90
25468;DHT22;13384;24.794;110.498;2023-03-11T17:20:21;19.20;99.90
25468;DHT22;13384;24.794;110.498;2023-03-11T17:22:54;19.10;99.90
25468;DHT22;13384;24.794;110.498;2023-03-11T17:25:25;19.20;99.90
25468;DHT22;13384;24.794;110.498;2023-03-11T17:27:57;19.20;99.90
25468;DHT22;13384;24.794;110.498;2023-03-11T17:30:28;19.20;99.90